Time;durP1;ratioP1;P1;durP2;ratioP2;P2;SDS_P1;SDS_P2;PMS_P1;PMS_P2;Temp;Humidity;BMP_temperature;BMP_pressure;BME280_temperature;BME280_humidity;BME280_pressure;Samples;Min_cycle;Max_cycle;Signal;HPM_P1;HPM_P2
2021/11/19 00:00:26;;;;;;;16.50;7.13;;;11.30;99.90;;;;;;5057797;28;20082;-53
2021/11/19 00:02:52;;;;;;;10.77;6.32;;;11.30;99.90;;;;;;5053087;28;20013;-52
2021/11/19 00:05:18;;;;;;;17.33;6.50;;;11.30;99.90;;;;;;5050884;28;20392;-55
2021/11/19 00:07:43;;;;;;;15.48;6.85;;;11.30;99.90;;;;;;5059282;28;20025;-52
2021/11/19 00:10:10;;;;;;;11.23;6.18;;;11.30;99.90;;;;;;5062180;28;20578;-56
2021/11/19 00:12:36;;;;;;;11.15;6.20;;;11.30;99.90;;;;;;5049734;28;20108;-55
2021/11/19 00:15:03;;;;;;;17.05;6.68;;;11.30;99.90;;;;;;5053743;28;20032;-56
2021/11/19 00:17:29;;;;;;;23.40;6.57;;;11.30;99.90;;;;;;5065180;28;20037;-57
2021/11/19 00:19:54;;;;;;;10.00;6.03;;;11.40;99.90;;;;;;5049317;28;20028;-52
2021/11/19 00:22:20;;;;;;;16.02;6.35;;;11.30;99.90;;;;;;5061724;28;20132;-52
2021/11/19 00:24:46;;;;;;;10.57;6.18;;;11.40;99.90;;;;;;5049894;28;20089;-52
2021/11/19 00:27:14;;;;;;;15.05;6.60;;;11.40;99.90;;;;;;5059809;28;20660;-58
2021/11/19 00:29:41;;;;;;;19.65;6.72;;;11.40;99.90;;;;;;5069298;28;20077;-54
2021/11/19 00:32:08;;;;;;;18.27;6.45;;;11.30;99.90;;;;;;5051922;28;20036;-55
2021/11/19 00:34:34;;;;;;;19.23;6.35;;;11.40;99.90;;;;;;5069113;28;20487;-55
2021/11/19 00:37:00;;;;;;;14.15;6.30;;;11.40;99.90;;;;;;5062975;28;20086;-56
2021/11/19 00:39:26;;;;;;;16.42;6.35;;;11.40;99.90;;;;;;5067144;28;20025;-53
2021/11/19 00:41:53;;;;;;;13.68;5.97;;;11.40;99.90;;;;;;5068933;28;20435;-57
2021/11/19 00:44:20;;;;;;;17.88;5.90;;;11.40;99.90;;;;;;5062504;28;20082;-55
2021/11/19 00:46:48;;;;;;;18.75;6.63;;;11.40;99.90;;;;;;5062980;28;20488;-56
2021/11/19 00:49:16;;;;;;;18.05;5.65;;;11.40;99.90;;;;;;5063986;28;20480;-56
2021/11/19 00:51:46;;;;;;;17.48;5.47;;;11.40;99.90;;;;;;5060768;28;20056;-53
2021/11/19 00:54:12;;;;;;;11.45;5.00;;;11.40;99.90;;;;;;5064669;28;20107;-54
2021/11/19 00:56:41;;;;;;;17.42;6.38;;;11.40;99.90;;;;;;5064138;28;20032;-52
2021/11/19 00:59:09;;;;;;;15.63;4.93;;;11.40;99.90;;;;;;5061262;28;20032;-52
2021/11/19 01:01:38;;;;;;;9.70;5.28;;;11.40;99.90;;;;;;5050811;28;20035;-55
2021/11/19 01:04:06;;;;;;;15.43;5.32;;;11.40;99.90;;;;;;5058380;28;20542;-51
2021/11/19 01:06:33;;;;;;;11.88;4.65;;;11.40;99.90;;;;;;5057487;28;20028;-53
2021/11/19 01:09:01;;;;;;;12.45;4.70;;;11.40;99.90;;;;;;5048038;28;20040;-58
2021/11/19 01:11:27;;;;;;;9.70;3.97;;;11.40;99.90;;;;;;5049802;28;20116;-56
2021/11/19 01:13:57;;;;;;;12.10;4.88;;;11.40;99.90;;;;;;5052530;28;20562;-53
2021/11/19 01:16:33;;;;;;;13.63;4.55;;;11.40;99.90;;;;;;5051994;28;20536;-57
2021/11/19 01:19:06;;;;;;;12.43;4.65;;;11.40;99.90;;;;;;5068316;28;20031;-55
2021/11/19 01:21:41;;;;;;;13.68;4.68;;;11.40;99.90;;;;;;5055649;28;20124;-54
2021/11/19 01:24:07;;;;;;;11.73;4.47;;;11.50;99.90;;;;;;5055931;28;20025;-54
2021/11/19 01:26:36;;;;;;;16.55;4.40;;;11.50;99.90;;;;;;5038212;28;20568;-56
2021/11/19 01:29:06;;;;;;;12.65;4.63;;;11.50;99.90;;;;;;5054754;28;20023;-53
2021/11/19 01:31:37;;;;;;;11.63;4.82;;;11.50;99.90;;;;;;5066764;28;20024;-53
2021/11/19 01:34:03;;;;;;;12.07;3.58;;;11.50;99.90;;;;;;5050950;28;20027;-52
2021/11/19 01:36:30;;;;;;;10.85;3.35;;;11.50;99.90;;;;;;5057981;28;20024;-54
2021/11/19 01:38:55;;;;;;;9.43;3.30;;;11.50;99.90;;;;;;5044638;28;20068;-56
2021/11/19 01:41:25;;;;;;;14.00;4.65;;;11.50;99.90;;;;;;5049488;28;20031;-54
2021/11/19 01:43:52;;;;;;;13.90;4.88;;;11.50;99.90;;;;;;5067075;28;20128;-56
2021/11/19 01:46:21;;;;;;;12.75;3.30;;;11.50;99.90;;;;;;5060599;28;20021;-55
2021/11/19 01:48:49;;;;;;;8.73;3.47;;;11.50;99.90;;;;;;5051842;28;20036;-54
2021/11/19 01:51:27;;;;;;;9.95;3.50;;;11.50;99.90;;;;;;5066411;28;20029;-54
2021/11/19 01:54:07;;;;;;;13.88;3.92;;;11.50;99.90;;;;;;5054277;28;20099;-55
2021/11/19 01:56:38;;;;;;;10.15;4.00;;;11.50;99.90;;;;;;5037187;28;20028;-55
2021/11/19 01:59:53;;;;;;;17.00;4.07;;;11.50;99.90;;;;;;5065265;28;20025;-55
2021/11/19 02:02:24;;;;;;;8.30;3.45;;;11.50;99.90;;;;;;5007343;28;20099;-55
2021/11/19 02:04:55;;;;;;;9.32;3.45;;;11.50;99.90;;;;;;5048183;28;20108;-55
2021/11/19 02:07:31;;;;;;;14.13;4.88;;;11.50;99.90;;;;;;5051889;28;20021;-54
2021/11/19 02:10:09;;;;;;;9.55;3.63;;;11.50;99.90;;;;;;5057133;28;20056;-58
2021/11/19 02:12:44;;;;;;;11.10;4.30;;;11.50;99.90;;;;;;5067840;28;20055;-55
2021/11/19 02:15:22;;;;;;;14.23;4.30;;;11.50;99.90;;;;;;5033950;28;20025;-57
2021/11/19 02:17:52;;;;;;;8.18;3.88;;;11.50;99.90;;;;;;5068443;28;20074;-56
2021/11/19 02:20:41;;;;;;;11.05;3.22;;;11.50;99.90;;;;;;5070888;28;20027;-52
2021/11/19 02:23:15;;;;;;;7.72;3.40;;;11.50;99.90;;;;;;5070430;28;20027;-54
2021/11/19 02:25:49;;;;;;;12.57;3.92;;;11.50;99.90;;;;;;5063798;28;20027;-55
2021/11/19 02:28:28;;;;;;;8.10;3.50;;;11.50;99.90;;;;;;5051550;28;20141;-56
2021/11/19 02:31:08;;;;;;;7.60;3.45;;;11.50;99.90;;;;;;5043057;28;20130;-53
2021/11/19 02:33:34;;;;;;;10.30;3.65;;;11.60;99.90;;;;;;5071609;28;20036;-55
2021/11/19 02:36:12;;;;;;;13.57;3.42;;;11.60;99.90;;;;;;5060661;28;20054;-55
2021/11/19 02:38:57;;;;;;;11.48;3.53;;;11.60;99.90;;;;;;5051347;28;20039;-52
2021/11/19 02:41:25;;;;;;;13.57;4.35;;;11.60;99.90;;;;;;5055512;28;20029;-58
2021/11/19 02:43:55;;;;;;;11.93;3.33;;;11.60;99.90;;;;;;5063536;28;20499;-54
2021/11/19 02:46:32;;;;;;;11.63;3.85;;;11.60;99.90;;;;;;5065301;28;20025;-57
2021/11/19 02:48:58;;;;;;;16.65;4.20;;;11.60;99.90;;;;;;5051069;28;20025;-56
2021/11/19 02:51:26;;;;;;;8.15;3.95;;;11.60;99.90;;;;;;5060118;28;20032;-56
2021/11/19 02:53:53;;;;;;;9.93;3.45;;;11.60;99.90;;;;;;5053597;28;20021;-57
2021/11/19 02:56:20;;;;;;;11.93;4.20;;;11.50;99.90;;;;;;5068035;28;20166;-53
2021/11/19 02:58:49;;;;;;;10.63;3.92;;;11.60;99.90;;;;;;5070981;28;20453;-57
2021/11/19 03:01:19;;;;;;;15.00;3.42;;;11.50;99.90;;;;;;5069735;28;20074;-56
2021/11/19 03:03:58;;;;;;;10.77;2.72;;;11.50;99.90;;;;;;5071592;28;20024;-55
2021/11/19 03:06:24;;;;;;;15.02;3.80;;;11.50;99.90;;;;;;5064460;28;20159;-53
2021/11/19 03:08:49;;;;;;;12.38;3.25;;;11.50;99.90;;;;;;5063429;28;20647;-53
2021/11/19 03:11:15;;;;;;;9.77;2.92;;;11.60;99.90;;;;;;5051215;28;20026;-54
2021/11/19 03:13:41;;;;;;;12.68;3.58;;;11.50;99.90;;;;;;5051272;28;20388;-54
2021/11/19 03:16:09;;;;;;;12.75;3.40;;;11.50;99.90;;;;;;5051197;28;20025;-56
2021/11/19 03:18:36;;;;;;;7.95;3.22;;;11.60;99.90;;;;;;5049540;28;20067;-52
2021/11/19 03:21:05;;;;;;;13.30;3.88;;;11.60;99.90;;;;;;5051035;28;20021;-56
2021/11/19 03:23:32;;;;;;;15.05;3.50;;;11.60;99.90;;;;;;5051941;28;20051;-57
2021/11/19 03:26:00;;;;;;;7.78;3.70;;;11.60;99.90;;;;;;5071023;28;20051;-54
2021/11/19 03:28:27;;;;;;;9.38;3.38;;;11.60;99.90;;;;;;5071060;28;20078;-53
2021/11/19 03:30:57;;;;;;;17.25;3.60;;;11.60;99.90;;;;;;5053041;28;20682;-56
2021/11/19 03:33:28;;;;;;;11.30;3.13;;;11.50;99.90;;;;;;5066382;28;20020;-52
2021/11/19 03:35:54;;;;;;;10.70;3.08;;;11.60;99.90;;;;;;5058566;28;20134;-55
2021/11/19 03:38:22;;;;;;;9.00;3.63;;;11.50;99.90;;;;;;5050108;28;20423;-56
2021/11/19 03:40:50;;;;;;;13.63;3.30;;;11.50;99.90;;;;;;5054431;28;20036;-52
2021/11/19 03:43:21;;;;;;;10.43;3.50;;;11.60;99.90;;;;;;5069671;28;20024;-55
2021/11/19 03:45:51;;;;;;;10.45;3.88;;;11.60;99.90;;;;;;5067281;28;20090;-57
2021/11/19 03:48:18;;;;;;;8.13;2.95;;;11.60;99.90;;;;;;5065954;28;20033;-56
2021/11/19 03:50:48;;;;;;;13.05;3.40;;;11.60;99.90;;;;;;5066611;28;20169;-56
2021/11/19 03:53:16;;;;;;;11.63;3.75;;;11.60;99.90;;;;;;5051740;28;20028;-57
2021/11/19 03:55:46;;;;;;;11.15;3.95;;;11.60;99.90;;;;;;5061781;28;20037;-52
2021/11/19 03:58:16;;;;;;;17.73;3.78;;;11.60;99.90;;;;;;5060153;28;20037;-53
2021/11/19 04:00:46;;;;;;;10.80;4.07;;;11.60;99.90;;;;;;5065529;28;20082;-52
2021/11/19 04:03:15;;;;;;;13.18;4.57;;;11.50;99.90;;;;;;5070449;28;20037;-56
2021/11/19 04:05:42;;;;;;;10.73;4.20;;;11.60;99.90;;;;;;5059262;28;20032;-56
2021/11/19 04:08:08;;;;;;;12.55;4.05;;;11.60;99.90;;;;;;5043589;28;20032;-54
2021/11/19 04:10:34;;;;;;;19.85;4.70;;;11.50;99.90;;;;;;5061465;28;20720;-55
2021/11/19 04:13:01;;;;;;;13.55;3.63;;;11.50;99.90;;;;;;5053795;28;20461;-58
2021/11/19 04:15:33;;;;;;;18.60;4.47;;;11.50;99.90;;;;;;5068400;28;20036;-55
2021/11/19 04:18:00;;;;;;;12.30;4.25;;;11.60;99.90;;;;;;5051472;28;20039;-55
2021/11/19 04:20:26;;;;;;;17.23;4.72;;;11.60;99.90;;;;;;5051017;28;20025;-54
2021/11/19 04:22:53;;;;;;;9.68;3.17;;;11.60;99.90;;;;;;5069536;28;20017;-52
2021/11/19 04:25:22;;;;;;;11.65;4.00;;;11.60;99.90;;;;;;5049654;28;20017;-54
2021/11/19 04:27:48;;;;;;;11.32;3.58;;;11.60;99.90;;;;;;5053732;28;20032;-55
2021/11/19 04:30:20;;;;;;;14.70;4.30;;;11.60;99.90;;;;;;5050967;28;20051;-55
2021/11/19 04:32:46;;;;;;;13.43;3.85;;;11.60;99.90;;;;;;5050301;28;20404;-54
2021/11/19 04:35:12;;;;;;;14.27;3.90;;;11.50;99.90;;;;;;5049692;28;20047;-57
2021/11/19 04:37:38;;;;;;;11.90;4.22;;;11.60;99.90;;;;;;5048629;28;20174;-52
2021/11/19 04:40:06;;;;;;;8.02;4.18;;;11.60;99.90;;;;;;5067320;28;20556;-54
2021/11/19 04:42:33;;;;;;;8.30;3.42;;;11.60;99.90;;;;;;5052189;28;20496;-55
2021/11/19 04:44:58;;;;;;;15.48;4.78;;;11.60;99.90;;;;;;5050290;28;20384;-52
2021/11/19 04:47:24;;;;;;;8.55;3.70;;;11.60;99.90;;;;;;5065069;28;20025;-52
2021/11/19 04:49:49;;;;;;;14.73;4.10;;;11.60;99.90;;;;;;5068523;28;20515;-55
2021/11/19 04:52:16;;;;;;;11.40;4.32;;;11.60;99.90;;;;;;5056453;28;20028;-56
2021/11/19 04:54:42;;;;;;;14.35;4.70;;;11.60;99.90;;;;;;5069512;28;20051;-53
2021/11/19 04:57:09;;;;;;;10.65;5.13;;;11.60;99.90;;;;;;5055374;28;20508;-53
2021/11/19 04:59:35;;;;;;;14.38;4.78;;;11.60;99.90;;;;;;5064947;28;20047;-52
2021/11/19 05:02:04;;;;;;;10.88;4.95;;;11.60;99.90;;;;;;5055096;28;20037;-54
2021/11/19 05:04:29;;;;;;;9.55;4.82;;;11.60;99.90;;;;;;5048566;28;20595;-56
2021/11/19 05:06:55;;;;;;;22.08;5.32;;;11.60;99.90;;;;;;5061625;28;20028;-55
2021/11/19 05:09:21;;;;;;;12.23;5.35;;;11.50;99.90;;;;;;5064230;28;20063;-54
2021/11/19 05:11:55;;;;;;;9.20;4.57;;;11.60;99.90;;;;;;5051554;28;20040;-53
2021/11/19 05:14:21;;;;;;;13.88;5.10;;;11.50;99.90;;;;;;5052964;28;20055;-51
2021/11/19 05:16:47;;;;;;;13.68;5.05;;;11.50;99.90;;;;;;5049281;28;20095;-57
2021/11/19 05:19:13;;;;;;;15.05;4.70;;;11.60;99.90;;;;;;5048209;28;20025;-54
2021/11/19 05:21:39;;;;;;;15.55;5.03;;;11.60;99.90;;;;;;5052802;28;20560;-55
2021/11/19 05:24:08;;;;;;;18.75;4.70;;;11.50;99.90;;;;;;5068530;28;20425;-52
2021/11/19 05:26:34;;;;;;;13.27;4.45;;;11.50;99.90;;;;;;5063045;28;20704;-54
2021/11/19 05:29:00;;;;;;;13.68;4.78;;;11.50;99.90;;;;;;5048943;28;20656;-53
2021/11/19 05:31:26;;;;;;;8.20;4.43;;;11.50;99.90;;;;;;5068586;28;20024;-53
2021/11/19 05:33:52;;;;;;;13.55;4.70;;;11.50;99.90;;;;;;5068137;28;20017;-52
2021/11/19 05:36:18;;;;;;;19.02;4.45;;;11.40;99.90;;;;;;5066726;28;20032;-53
2021/11/19 05:38:44;;;;;;;15.35;5.35;;;11.50;99.90;;;;;;5057105;28;20116;-57
2021/11/19 05:41:13;;;;;;;16.27;5.10;;;11.50;99.90;;;;;;5047621;28;20025;-56
2021/11/19 05:43:48;;;;;;;14.52;4.68;;;11.50;99.90;;;;;;5048607;28;20063;-55
2021/11/19 05:46:15;;;;;;;11.82;4.97;;;11.50;99.90;;;;;;5050843;28;20106;-58
2021/11/19 05:48:41;;;;;;;14.65;4.60;;;11.50;99.90;;;;;;5047937;28;20025;-57
2021/11/19 05:51:07;;;;;;;16.15;5.10;;;11.50;99.90;;;;;;5048613;28;20694;-59
2021/11/19 05:53:33;;;;;;;16.10;4.30;;;11.50;99.90;;;;;;5048045;28;20041;-54
2021/11/19 05:56:00;;;;;;;16.77;4.72;;;11.50;99.90;;;;;;5048604;28;20037;-54
2021/11/19 05:58:25;;;;;;;17.42;4.75;;;11.50;99.90;;;;;;5051421;28;20496;-56
2021/11/19 06:00:52;;;;;;;17.23;3.63;;;11.60;99.90;;;;;;5059349;28;20025;-54
2021/11/19 06:03:18;;;;;;;19.08;4.35;;;11.60;99.90;;;;;;5057334;28;20024;-55
2021/11/19 06:05:44;;;;;;;21.90;4.80;;;11.60;99.90;;;;;;5067889;28;20020;-55
2021/11/19 06:08:09;;;;;;;11.10;3.20;;;11.60;99.90;;;;;;5067624;28;20028;-57
2021/11/19 06:10:40;;;;;;;19.48;3.72;;;11.60;99.90;;;;;;5049892;28;20029;-54
2021/11/19 06:13:10;;;;;;;17.48;4.43;;;11.60;99.90;;;;;;5067823;28;20036;-56
2021/11/19 06:15:42;;;;;;;17.48;4.47;;;11.60;99.90;;;;;;5068041;28;20025;-54
2021/11/19 06:18:14;;;;;;;17.77;4.25;;;11.60;99.90;;;;;;5067025;28;20024;-55
2021/11/19 06:21:21;;;;;;;15.85;4.20;;;11.60;99.90;;;;;;5068050;28;20021;-56
2021/11/19 06:23:50;;;;;;;15.23;4.25;;;11.60;99.90;;;;;;5067778;28;20028;-58
2021/11/19 06:26:18;;;;;;;10.95;4.38;;;11.60;99.90;;;;;;5054543;28;20017;-56
2021/11/19 06:28:46;;;;;;;18.30;5.18;;;11.60;99.90;;;;;;5052063;28;20369;-56
2021/11/19 06:31:15;;;;;;;14.88;4.40;;;11.50;99.90;;;;;;5036097;28;20029;-54
2021/11/19 06:33:42;;;;;;;13.30;4.07;;;11.60;99.90;;;;;;5048893;28;20461;-54
2021/11/19 06:36:09;;;;;;;13.13;4.15;;;11.60;99.90;;;;;;5064538;28;20396;-55
2021/11/19 06:38:35;;;;;;;13.65;4.05;;;11.50;99.90;;;;;;5059441;28;20545;-53
2021/11/19 06:41:01;;;;;;;10.75;3.22;;;11.60;99.90;;;;;;5047799;28;20181;-55
2021/11/19 06:43:27;;;;;;;11.02;3.92;;;11.60;99.90;;;;;;5058063;28;20530;-55
2021/11/19 06:45:53;;;;;;;14.75;4.20;;;11.60;99.90;;;;;;5067448;28;20024;-57
2021/11/19 06:48:18;;;;;;;15.57;5.13;;;11.60;99.90;;;;;;5067001;28;20031;-58
2021/11/19 06:50:44;;;;;;;9.90;4.13;;;11.60;99.90;;;;;;5067530;28;20039;-56
2021/11/19 06:53:11;;;;;;;16.95;4.35;;;11.60;99.90;;;;;;5068783;28;20073;-56
2021/11/19 06:55:38;;;;;;;12.65;4.18;;;11.60;99.90;;;;;;5070938;28;20035;-57
2021/11/19 06:58:05;;;;;;;16.70;5.75;;;11.60;99.90;;;;;;5070738;28;20039;-54
2021/11/19 07:00:34;;;;;;;14.23;4.53;;;11.60;99.90;;;;;;5070798;28;20029;-57
2021/11/19 07:03:00;;;;;;;14.65;4.60;;;11.60;99.90;;;;;;5070971;28;20450;-56
2021/11/19 07:05:27;;;;;;;13.57;3.95;;;11.60;99.90;;;;;;5070812;28;20020;-56
2021/11/19 07:07:53;;;;;;;12.18;4.47;;;11.60;99.90;;;;;;5070403;28;20488;-56
2021/11/19 07:10:21;;;;;;;13.95;5.53;;;11.70;99.90;;;;;;5071270;28;20028;-54
2021/11/19 07:12:47;;;;;;;16.00;4.47;;;11.70;99.90;;;;;;5070958;28;20475;-55
2021/11/19 07:15:16;;;;;;;15.38;3.40;;;11.70;99.90;;;;;;5071045;28;20035;-52
2021/11/19 07:17:43;;;;;;;14.13;3.83;;;11.70;99.90;;;;;;5070683;28;20048;-56
2021/11/19 07:20:11;;;;;;;9.90;4.15;;;11.70;99.90;;;;;;5070544;28;20037;-56
2021/11/19 07:22:38;;;;;;;11.27;4.38;;;11.70;99.90;;;;;;5069658;28;20026;-55
2021/11/19 07:25:04;;;;;;;15.80;5.40;;;11.70;99.90;;;;;;5071246;28;20434;-55
2021/11/19 07:27:30;;;;;;;15.82;4.82;;;11.70;99.90;;;;;;5070627;28;20024;-58
2021/11/19 07:29:55;;;;;;;18.08;5.72;;;11.70;99.90;;;;;;5070733;28;20028;-52
2021/11/19 07:32:21;;;;;;;8.38;3.83;;;11.70;99.90;;;;;;5070572;28;20033;-58
2021/11/19 07:34:47;;;;;;;14.05;4.28;;;11.70;99.90;;;;;;5070686;28;20024;-56
2021/11/19 07:37:13;;;;;;;13.40;3.80;;;11.70;99.90;;;;;;5070297;28;20395;-58
2021/11/19 07:39:38;;;;;;;11.82;4.18;;;11.70;99.90;;;;;;5069555;28;20461;-54
2021/11/19 07:42:04;;;;;;;13.50;4.10;;;11.70;99.90;;;;;;5070787;28;20659;-57
2021/11/19 07:44:31;;;;;;;8.70;4.10;;;11.70;99.90;;;;;;5070216;28;20028;-57
2021/11/19 07:46:56;;;;;;;12.45;5.35;;;11.70;99.90;;;;;;5070175;28;20032;-57
2021/11/19 07:49:22;;;;;;;16.95;4.45;;;11.70;99.90;;;;;;5070443;28;20093;-55
2021/11/19 07:51:51;;;;;;;14.18;5.03;;;11.70;99.90;;;;;;5069200;28;20017;-57
2021/11/19 07:54:17;;;;;;;7.47;4.15;;;11.70;99.90;;;;;;5070432;28;20488;-56
2021/11/19 07:56:44;;;;;;;10.85;3.92;;;11.70;99.90;;;;;;5070503;28;20089;-58
2021/11/19 07:59:20;;;;;;;12.77;4.03;;;11.70;99.90;;;;;;5068238;28;20020;-55
2021/11/19 08:01:47;;;;;;;16.27;4.53;;;11.70;99.90;;;;;;5070086;28;20174;-58
2021/11/19 08:04:13;;;;;;;8.88;4.30;;;11.70;99.90;;;;;;5069438;28;20033;-55
2021/11/19 08:06:40;;;;;;;12.98;4.95;;;11.70;99.90;;;;;;5069925;28;20749;-57
2021/11/19 08:09:06;;;;;;;6.82;4.63;;;11.70;99.90;;;;;;5062234;28;20033;-55
2021/11/19 08:11:32;;;;;;;13.48;5.40;;;11.70;99.90;;;;;;5065938;28;20062;-56
2021/11/19 08:13:58;;;;;;;11.05;4.05;;;11.70;99.90;;;;;;5069728;28;20021;-52
2021/11/19 08:16:24;;;;;;;11.88;4.78;;;11.70;99.90;;;;;;5069952;28;20023;-59
2021/11/19 08:18:58;;;;;;;14.57;4.80;;;11.70;99.90;;;;;;5069602;28;20029;-58
2021/11/19 08:21:25;;;;;;;13.35;4.82;;;11.70;99.90;;;;;;5069585;28;20025;-58
2021/11/19 08:24:04;;;;;;;14.80;4.93;;;11.70;99.90;;;;;;5069167;28;20443;-56
2021/11/19 08:26:43;;;;;;;5.60;4.13;;;11.70;99.90;;;;;;5068706;28;20451;-58
2021/11/19 08:29:14;;;;;;;11.10;5.18;;;11.80;99.90;;;;;;5069411;28;20024;-55
2021/11/19 08:31:40;;;;;;;13.00;4.90;;;11.80;99.90;;;;;;5069941;28;20036;-58
2021/11/19 08:34:06;;;;;;;16.17;5.45;;;11.80;99.90;;;;;;5069668;28;20385;-58
2021/11/19 08:36:33;;;;;;;13.95;5.95;;;11.80;99.90;;;;;;5068641;28;20086;-58
2021/11/19 08:39:00;;;;;;;13.27;5.05;;;11.80;99.90;;;;;;5051370;28;20078;-59
2021/11/19 08:41:27;;;;;;;12.25;6.10;;;11.80;99.90;;;;;;5069333;28;20043;-57
2021/11/19 08:43:56;;;;;;;14.38;5.97;;;11.80;99.90;;;;;;5069307;28;20020;-57
2021/11/19 08:46:27;;;;;;;10.57;5.85;;;11.80;99.90;;;;;;5069071;28;20028;-58
2021/11/19 08:48:53;;;;;;;14.38;5.95;;;11.90;99.90;;;;;;5068843;28;20029;-55
2021/11/19 08:51:23;;;;;;;14.70;6.30;;;11.90;99.90;;;;;;5068909;28;20453;-57
2021/11/19 08:53:51;;;;;;;8.80;5.53;;;11.90;99.90;;;;;;5069308;28;20025;-58
2021/11/19 08:56:17;;;;;;;10.98;5.45;;;11.90;99.90;;;;;;5056763;28;20021;-54
2021/11/19 08:58:44;;;;;;;13.60;6.32;;;11.90;99.90;;;;;;5047719;28;20028;-59
2021/11/19 09:01:12;;;;;;;14.13;7.30;;;11.90;99.90;;;;;;5048219;28;20056;-57
2021/11/19 09:03:38;;;;;;;14.27;6.28;;;11.90;99.90;;;;;;5030839;28;20456;-58
2021/11/19 09:06:06;;;;;;;11.93;5.55;;;11.90;99.90;;;;;;5049368;28;20060;-57
2021/11/19 09:08:32;;;;;;;9.13;5.75;;;11.90;99.90;;;;;;5032585;28;20158;-57
2021/11/19 09:10:58;;;;;;;11.50;5.85;;;11.90;99.90;;;;;;5049701;28;20085;-56
2021/11/19 09:13:25;;;;;;;11.07;4.80;;;11.90;99.90;;;;;;5063656;28;20025;-55
2021/11/19 09:15:52;;;;;;;9.45;6.35;;;11.90;99.90;;;;;;5069291;28;20028;-59
2021/11/19 09:18:57;;;;;;;10.88;6.25;;;11.90;99.90;;;;;;5068257;28;20118;-59
2021/11/19 09:21:32;;;;;;;10.77;5.75;;;12.00;99.90;;;;;;5034064;28;20036;-57
2021/11/19 09:24:13;;;;;;;16.60;6.38;;;12.00;99.90;;;;;;5049257;28;20029;-59
2021/11/19 09:26:41;;;;;;;12.02;5.97;;;12.00;99.90;;;;;;5048319;28;20024;-58
2021/11/19 09:29:17;;;;;;;13.65;6.15;;;11.90;99.90;;;;;;5048953;28;20034;-59
2021/11/19 09:31:44;;;;;;;;;;;12.00;99.90;;;;;;5058622;28;20808;-57
2021/11/19 09:34:10;;;;;;;12.75;5.75;;;12.00;99.90;;;;;;5049006;28;19909;-59
2021/11/19 09:36:37;;;;;;;16.00;6.10;;;11.90;99.90;;;;;;5058591;28;20523;-60
2021/11/19 09:39:06;;;;;;;19.05;6.65;;;11.90;99.90;;;;;;5068084;28;20020;-59
2021/11/19 09:41:44;;;;;;;12.02;7.00;;;11.90;99.90;;;;;;5049432;28;20033;-59
2021/11/19 09:44:40;;;;;;;11.23;5.68;;;11.90;99.90;;;;;;5048071;28;20017;-58
2021/11/19 09:47:18;;;;;;;11.98;6.78;;;12.00;99.90;;;;;;5048512;28;20115;-58
2021/11/19 09:50:05;;;;;;;11.43;5.93;;;12.00;99.90;;;;;;5029641;28;20044;-57
2021/11/19 09:52:54;;;;;;;12.68;5.80;;;12.00;99.90;;;;;;5048101;28;20040;-59
2021/11/19 09:55:44;;;;;;;10.40;5.38;;;11.90;99.90;;;;;;5048181;28;20061;-58
2021/11/19 09:58:43;;;;;;;10.85;6.32;;;12.00;99.90;;;;;;5047048;28;20056;-57
2021/11/19 10:01:31;;;;;;;7.43;5.65;;;12.00;99.90;;;;;;5047610;28;20053;-59
2021/11/19 10:04:31;;;;;;;11.30;6.07;;;12.00;99.90;;;;;;5051036;28;20104;-56
2021/11/19 10:07:27;;;;;;;12.45;6.40;;;12.10;99.90;;;;;;5066967;28;20024;-57
2021/11/19 10:09:59;;;;;;;14.48;7.50;;;12.10;99.90;;;;;;5067989;28;20032;-59
2021/11/19 10:12:54;;;;;;;14.85;8.27;;;12.10;99.90;;;;;;5065982;28;20036;-57
2021/11/19 10:15:32;;;;;;;17.27;10.57;;;12.10;99.90;;;;;;5020265;28;20041;-56
2021/11/19 10:18:12;;;;;;;20.27;10.48;;;12.10;99.90;;;;;;5047747;28;20108;-57
2021/11/19 10:20:58;;;;;;;14.73;10.73;;;12.10;99.90;;;;;;5066448;28;20033;-59
2021/11/19 10:23:32;;;;;;;16.73;10.13;;;12.10;99.90;;;;;;5067099;28;20032;-55
2021/11/19 10:26:17;;;;;;;22.92;14.77;;;12.10;99.90;;;;;;5047431;28;20025;-56
2021/11/19 10:28:46;;;;;;;15.15;9.32;;;12.10;99.90;;;;;;5050571;28;20021;-56
2021/11/19 10:31:16;;;;;;;21.77;11.23;;;12.20;99.90;;;;;;5051731;28;20025;-56
2021/11/19 10:34:05;;;;;;;12.75;7.78;;;12.20;99.90;;;;;;5051444;28;20396;-57
2021/11/19 10:36:37;;;;;;;11.38;7.55;;;12.20;99.90;;;;;;5022578;28;20131;-54
2021/11/19 10:39:30;;;;;;;11.50;6.45;;;12.20;99.90;;;;;;5069150;28;20485;-56
2021/11/19 10:42:23;;;;;;;15.48;6.55;;;12.20;99.90;;;;;;5051403;28;20032;-56
2021/11/19 10:45:07;;;;;;;9.68;6.13;;;12.20;99.90;;;;;;5052718;28;20056;-58
2021/11/19 10:47:47;;;;;;;9.55;5.95;;;12.20;99.90;;;;;;5062605;28;20100;-58
2021/11/19 10:50:43;;;;;;;9.55;5.65;;;12.20;99.90;;;;;;5058324;28;20044;-55
2021/11/19 10:53:12;;;;;;;9.40;6.15;;;12.10;99.90;;;;;;5051598;28;20025;-56
2021/11/19 10:56:16;;;;;;;10.52;5.65;;;12.10;99.90;;;;;;5065543;28;20036;-57
2021/11/19 10:58:56;;;;;;;15.10;6.22;;;12.10;99.90;;;;;;5069164;28;20060;-52
2021/11/19 11:01:25;;;;;;;10.93;6.00;;;12.10;99.90;;;;;;5071634;28;20050;-56
2021/11/19 11:03:59;;;;;;;9.10;5.40;;;12.10;99.90;;;;;;5052558;28;20021;-56
2021/11/19 11:06:54;;;;;;;8.65;5.72;;;12.10;99.90;;;;;;5051398;28;20045;-55
2021/11/19 11:09:33;;;;;;;13.05;5.65;;;12.10;99.90;;;;;;5051249;28;20508;-55
2021/11/19 11:12:11;;;;;;;13.75;4.97;;;12.10;99.90;;;;;;5051282;28;20115;-55
2021/11/19 11:14:39;;;;;;;12.02;6.03;;;12.10;99.90;;;;;;5051353;28;20029;-52
2021/11/19 11:17:26;;;;;;;13.18;6.72;;;12.10;99.90;;;;;;5051162;28;20033;-52
2021/11/19 11:19:57;;;;;;;9.82;5.43;;;12.20;99.90;;;;;;5062708;28;20074;-55
2021/11/19 11:22:25;;;;;;;9.35;4.88;;;12.20;99.90;;;;;;5071156;28;20508;-54
2021/11/19 11:24:58;;;;;;;7.90;4.97;;;12.20;99.90;;;;;;5071366;28;20100;-59
2021/11/19 11:27:32;;;;;;;9.15;5.03;;;12.20;99.90;;;;;;5063499;28;20017;-58
2021/11/19 11:30:03;;;;;;;17.20;5.03;;;12.20;99.90;;;;;;5051102;28;20113;-56
2021/11/19 11:32:29;;;;;;;9.10;4.53;;;12.20;99.90;;;;;;5051747;28;20119;-59
2021/11/19 11:35:10;;;;;;;9.32;4.40;;;12.20;99.90;;;;;;5050729;28;20544;-58
2021/11/19 11:37:54;;;;;;;13.70;4.55;;;12.30;99.90;;;;;;5050871;28;20095;-58
2021/11/19 11:41:01;;;;;;;12.57;4.18;;;12.30;99.90;;;;;;5049587;28;20061;-55
2021/11/19 11:43:32;;;;;;;8.90;3.83;;;12.30;99.90;;;;;;5066394;28;20150;-56
2021/11/19 11:46:38;;;;;;;12.10;3.70;;;12.30;99.90;;;;;;5070731;28;20016;-58
2021/11/19 11:49:23;;;;;;;8.60;4.13;;;12.40;99.90;;;;;;5037026;28;20041;-57
2021/11/19 11:52:04;;;;;;;12.30;4.07;;;12.40;99.90;;;;;;5055367;28;20035;-57
2021/11/19 11:54:58;;;;;;;10.45;4.00;;;12.40;99.90;;;;;;5070183;28;20062;-56
2021/11/19 11:57:40;;;;;;;10.43;3.88;;;12.40;99.90;;;;;;5069026;28;20032;-58
2021/11/19 12:00:33;;;;;;;12.00;3.58;;;12.50;99.90;;;;;;5070585;28;20024;-56
2021/11/19 12:03:32;;;;;;;10.52;3.03;;;12.50;99.90;;;;;;5056401;28;20032;-56
2021/11/19 12:06:21;;;;;;;12.85;4.03;;;12.50;99.90;;;;;;5049971;28;20032;-58
2021/11/19 12:08:49;;;;;;;20.98;6.35;;;12.50;99.90;;;;;;5049807;28;20048;-59
2021/11/19 12:11:20;;;;;;;17.77;5.72;;;12.50;99.90;;;;;;5052221;28;20029;-59
2021/11/19 12:14:11;;;;;;;33.13;14.93;;;12.50;99.90;;;;;;5059914;28;20033;-54
2021/11/19 12:17:05;;;;;;;36.28;14.35;;;12.50;99.90;;;;;;5056437;28;20032;-58
2021/11/19 12:19:36;;;;;;;32.42;14.88;;;12.50;99.90;;;;;;5055478;28;20032;-58
2021/11/19 12:22:21;;;;;;;13.55;5.53;;;12.50;99.90;;;;;;5059251;28;20040;-55
2021/11/19 12:25:01;;;;;;;11.10;3.30;;;12.50;99.90;;;;;;5065410;28;20128;-55
2021/11/19 12:27:53;;;;;;;8.20;3.55;;;12.50;99.90;;;;;;5051849;28;20044;-59
2021/11/19 12:30:37;;;;;;;14.98;4.82;;;12.50;99.90;;;;;;5056384;28;20534;-58
2021/11/19 12:33:34;;;;;;;10.88;3.78;;;12.40;99.90;;;;;;5069615;28;20029;-57
2021/11/19 12:36:24;;;;;;;15.10;3.65;;;12.50;99.90;;;;;;5050762;28;20044;-58
2021/11/19 12:38:54;;;;;;;13.18;3.13;;;12.40;99.90;;;;;;5067690;28;20055;-58
2021/11/19 12:41:41;;;;;;;5.82;2.65;;;12.40;99.90;;;;;;5069597;28;20104;-58
2021/11/19 12:44:10;;;;;;;6.10;3.33;;;12.40;99.90;;;;;;5069453;28;20080;-58
2021/11/19 12:46:53;;;;;;;11.82;3.95;;;12.40;99.90;;;;;;5069387;28;20051;-56
2021/11/19 12:49:31;;;;;;;10.50;4.00;;;12.40;99.90;;;;;;5069166;28;20020;-56
2021/11/19 12:52:11;;;;;;;18.00;3.72;;;12.40;99.90;;;;;;5069480;28;20103;-55
2021/11/19 12:55:05;;;;;;;9.50;3.10;;;12.40;99.90;;;;;;5068922;28;20073;-57
2021/11/19 12:57:50;;;;;;;13.55;3.08;;;12.40;99.90;;;;;;5068448;28;20045;-56
2021/11/19 13:00:27;;;;;;;10.07;3.40;;;12.40;99.90;;;;;;5068822;28;20103;-57
2021/11/19 13:03:17;;;;;;;8.73;2.80;;;12.40;99.90;;;;;;5068522;28;20751;-56